Data for 07/02/2006

Time Sea-Level Adjusted Pressure Absolute Pressure Temperature Relative Humidity Dew Point   
(mb) (inHg) (mb) (inHg) (C) (F) (%) (C) (F)
00:05 1021 30.15 851 25.13 16.3 61.4 62 9.2 48.5
00:10 1021 30.15 851 25.13 16.5 61.7 62 9.3 48.8
00:15 1021 30.15 851 25.13 16.9 62.4 59 8.8 47.9
00:20 1021 30.15 851 25.13 17 62.6 58 8.8 47.8
00:25 1021 30.15 851 25.13 17.1 62.8 57 8.7 47.7
00:30 1021 30.15 851 25.13 17 62.6 59 9 48.3
00:35 1021 30.15 851 25.13 16.8 62.3 58 8.7 47.7
00:40 1021 30.15 851 25.13 16.8 62.2 60 8.9 48.1
00:45 1021 30.15 851 25.13 16.5 61.7 60 8.8 47.8
00:50 1021 30.15 851 25.13 16.6 61.8 59 8.5 47.4
00:55 1021 30.15 851 25.13 16.7 62.1 59 8.8 47.8
01:00 1021 30.15 851 25.13 16.6 61.9 59 8.7 47.7
01:05 1021 30.15 851 25.13 16.4 61.5 61 9 48.2
01:10 1021 30.15 851 25.13 16.4 61.4 60 8.7 47.7
01:15 1021 30.15 851 25.13 16.5 61.6 58 8.3 47
01:20 1021 30.15 850 25.1 16.8 62.3 56 8 46.4
01:25 1021 30.15 850 25.1 17.5 63.5 53 7.9 46.2
01:30 1021 30.15 850 25.1 18 64.5 52 8.2 46.7
01:35 1021 30.15 850 25.1 18.1 64.6 51 7.8 46.1
01:40 1021 30.15 850 25.1 18.6 65.5 49 7.8 46.1
01:45 1021 30.15 850 25.1 18.8 65.8 48 7.8 46
01:50 1021 30.15 850 25.1 18.7 65.7 49 7.8 46.1
01:55 1021 30.15 850 25.1 18.4 65.2 50 8 46.5
02:00 1021 30.15 850 25.1 18.1 64.5 51 8 46.3
02:05 1021 30.15 850 25.1 17.9 64.3 51 7.9 46.2
02:10 1021 30.15 850 25.1 18 64.3 51 7.9 46.2
02:15 1021 30.15 851 25.13 17.7 63.8 53 8.1 46.5
02:20 1022 30.18 851 25.13 17.4 63.2 54 8.1 46.5
02:25 1022 30.18 851 25.13 17.1 62.8 53 7.5 45.6
02:30 1022 30.18 851 25.13 17 62.6 55 8 46.3
02:35 1022 30.18 851 25.13 16.8 62.2 56 8 46.3
02:40 1022 30.18 851 25.13 16.6 61.8 57 8 46.4
02:45 1022 30.18 851 25.13 16.4 61.6 58 8.1 46.6
02:50 1022 30.18 851 25.13 16.5 61.7 58 8.4 47
02:55 1022 30.18 851 25.13 16.7 62.1 57 8.3 46.9
03:00 1022 30.18 851 25.13 17.1 62.8 51 7.1 44.8
03:05 1022 30.18 851 25.13 17.5 63.6 56 8.8 47.9
03:10 1022 30.18 851 25.13 15.9 60.6 63 8.8 47.9
03:15 1022 30.18 851 25.13 15.7 60.3 59 7.8 46
03:20 1022 30.18 851 25.13 16.6 61.8 57 8 46.5
03:25 1022 30.18 851 25.13 16.8 62.2 57 8.4 47.1
03:30 1022 30.18 851 25.13 16.7 62 58 8.4 47.1
03:35 1022 30.18 851 25.13 16.4 61.5 61 8.9 48.1
03:40 1022 30.18 851 25.13 15.8 60.5 63 8.8 47.8
03:45 1022 30.18 851 25.13 15.9 60.6 63 9 48.2
03:50 1022 30.18 851 25.13 16.2 61.1 58 8.1 46.5
03:55 1022 30.18 851 25.13 16.5 61.6 61 9 48.2
04:00 1022 30.18 851 25.13 15.6 60.1 72 10.7 51.3
04:05 1022 30.18 851 25.13 15.5 59.8 64 8.8 47.9
04:10 1022 30.18 851 25.13 15.6 60.1 64 8.9 48
04:15 1022 30.18 851 25.13 15.3 59.5 66 9.1 48.3
04:20 1022 30.18 851 25.13 14.9 58.7 66 8.7 47.7
04:25 1022 30.18 851 25.13 14.8 58.6 67 8.8 47.8
04:30 1022 30.18 851 25.13 14.5 58.2 68 8.8 47.8
04:35 1022 30.18 851 25.13 14.5 58 68 8.6 47.5
04:40 1022 30.18 851 25.13 14.4 57.9 67 8.4 47.2
04:45 1022 30.18 851 25.13 14.7 58.4 66 8.4 47.1
04:50 1021 30.15 851 25.13 14.7 58.4 66 8.4 47
04:55 1021 30.15 851 25.13 14.7 58.5 65 8.2 46.8
05:00 1022 30.18 851 25.13 15 59 66 8.7 47.6
05:05 1022 30.18 851 25.13 15 59 64 8.3 46.9
05:10 1022 30.18 851 25.13 15.3 59.5 63 8.3 46.9
05:15 1022 30.18 851 25.13 15.4 59.7 63 8.3 47
05:20 1022 30.18 851 25.13 15.5 59.9 64 8.7 47.7
05:25 1022 30.18 851 25.13 15.3 59.6 64 8.6 47.5
05:30 1022 30.18 851 25.13 15.1 59.3 63 8.2 46.7
05:35 1022 30.18 851 25.13 15.1 59.2 63 8.2 46.7
05:40 1022 30.18 851 25.13 14.9 58.9 64 8.3 47
05:45 1022 30.18 851 25.13 14.7 58.5 64 8.1 46.6
05:50 1022 30.18 851 25.13 14.7 58.4 64 7.9 46.2
05:55 1022 30.18 851 25.13 14.7 58.5 64 8 46.3
06:00 1022 30.18 851 25.13 14.9 58.8 63 8 46.5
06:05 1022 30.18 852 25.16 15.1 59.1 63 8.1 46.5
06:10 1022 30.18 852 25.16 15 59 64 8.3 47
06:15 1022 30.18 852 25.16 14.8 58.7 69 9.4 48.8
06:20 1022 30.18 852 25.16 15.1 59.1 64 8.3 47
06:25 1023 30.21 852 25.16 15.2 59.4 63 8.3 46.9
06:30 1023 30.21 852 25.16 15.3 59.5 64 8.7 47.6
06:35 1023 30.21 852 25.16 15.1 59.1 67 9 48.2
06:40 1023 30.21 852 25.16 14.9 58.8 68 9.1 48.4
06:45 1023 30.21 852 25.16 14.6 58.4 68 8.8 47.9
06:50 1023 30.21 852 25.16 14.9 58.8 67 8.8 47.8
06:55 1023 30.21 852 25.16 15.2 59.3 66 8.9 48.1
07:00 1023 30.21 852 25.16 15.6 60.1 65 9.1 48.4
07:05 1023 30.21 852 25.16 15.5 59.9 66 9.1 48.4
07:10 1023 30.21 852 25.16 15.3 59.6 67 9.3 48.8
07:15 1023 30.21 852 25.16 15.4 59.8 70 10 50
07:20 1023 30.21 852 25.16 15.8 60.4 64 9.1 48.4
07:25 1023 30.21 852 25.16 16 60.8 64 9.3 48.7
07:30 1023 30.21 852 25.16 16.5 61.6 63 9.5 49.1
07:35 1023 30.21 852 25.16 16.5 61.6 62 9.3 48.8
07:40 1023 30.21 852 25.16 16.5 61.6 64 9.7 49.4
07:45 1023 30.21 852 25.16 16.8 62.3 62 9.6 49.3
07:50 1023 30.21 852 25.16 17 62.6 63 10 50
07:55 1023 30.21 852 25.16 17.2 63 61 9.7 49.5
08:00 1023 30.21 852 25.16 17.7 63.8 59 9.7 49.5
08:05 1023 30.21 852 25.16 18.2 64.7 58 10 50
08:10 1023 30.21 852 25.16 18.4 65.1 57 9.9 49.9
08:15 1023 30.21 852 25.16 18.1 64.6 59 10 50
08:20 1023 30.21 852 25.16 18.4 65 58 10.1 50.1
08:25 1023 30.21 852 25.16 18.3 65 58 10 50
08:30 1023 30.21 852 25.16 18.3 64.9 56 9.5 49.2
08:35 1023 30.21 852 25.16 18.5 65.3 56 9.7 49.5
08:40 1023 30.21 852 25.16 19 66.2 54 9.5 49.2
08:45 1023 30.21 852 25.16 19.4 66.9 54 9.8 49.7
08:50 1023 30.21 852 25.16 20.3 68.5 48 9.1 48.4
08:55 1023 30.21 852 25.16 20.7 69.3 48 9.4 49
09:00 1023 30.21 852 25.16 20.8 69.5 44 8.4 47.1
09:05 1023 30.21 852 25.16 21.1 70 45 8.8 47.9
09:10 1023 30.21 852 25.16 21.3 70.4 42 8 46.4
09:15 1023 30.21 852 25.16 21.9 71.3 40 8 46.4
09:20 1023 30.21 852 25.16 21.9 71.5 41 8.1 46.6
09:25 1023 30.21 852 25.16 22.2 71.9 40 8.2 46.8
09:30 1023 30.21 852 25.16 22.3 72.2 40 8.1 46.6
09:35 1023 30.21 852 25.16 22.5 72.5 39 8 46.4
09:40 1023 30.21 852 25.16 22.9 73.1 38 8 46.3
09:45 1023 30.21 852 25.16 22.8 73 38 7.9 46.3
09:50 1023 30.21 852 25.16 22.9 73.2 39 8.2 46.8
09:55 1023 30.21 852 25.16 23.7 74.6 38 8.7 47.6
10:00 1023 30.21 852 25.16 24.2 75.6 35 7.8 46
10:05 1023 30.21 852 25.16 24.4 75.9 38 9.5 49.1
10:10 1023 30.21 852 25.16 23.3 73.9 44 10.4 50.7
10:15 1023 30.21 852 25.16 22.8 73 48 11.3 52.4
10:20 1023 30.21 852 25.16 22.8 73.1 46 10.8 51.4
10:25 1023 30.21 852 25.16 22.9 73.2 46 10.8 51.5
10:30 1023 30.21 852 25.16 22.9 73.3 45 10.6 51.1
10:35 1023 30.21 852 25.16 23.5 74.4 43 10.5 50.9
10:40 1023 30.21 852 25.16 23.5 74.3 44 10.9 51.6
10:45 1023 30.21 852 25.16 23.7 74.7 41 10 50
10:50 1023 30.21 852 25.16 24.2 75.6 40 10 50
10:55 1023 30.21 852 25.16 24.3 75.7 41 10.2 50.4
11:00 1023 30.21 852 25.16 24.7 76.4 40 10.4 50.7
11:05 1023 30.21 852 25.16 24.6 76.2 41 10.7 51.2
11:10 1023 30.21 852 25.16 25.1 77.2 37 9.8 49.7
11:15 1023 30.21 852 25.16 25.5 77.8 38 10.2 50.3
11:20 1023 30.21 852 25.16 24.9 76.8 40 10.6 51.1
11:25 1023 30.21 852 25.16 24.3 75.7 41 10.6 51
11:30 1023 30.21 852 25.16 24.7 76.5 39 9.9 49.8
11:35 1023 30.21 852 25.16 25.3 77.6 38 10.1 50.3
11:40 1023 30.21 852 25.16 25.7 78.3 38 10.6 51.1
11:45 1023 30.21 852 25.16 25.6 78.1 38 10.4 50.8
11:50 1023 30.21 852 25.16 25.1 77.2 39 10.6 51
11:55 1023 30.21 852 25.16 24.8 76.6 39 10.2 50.4
12:00 1023 30.21 852 25.16 25.5 78 38 10.5 50.8
12:05 1023 30.21 852 25.16 26.2 79.2 36 10.1 50.1
12:10 1022 30.18 852 25.16 26.3 79.4 36 10.1 50.2
12:15 1022 30.18 852 25.16 26.3 79.4 36 10.5 50.9
12:20 1022 30.18 852 25.16 25.7 78.2 37 10 50.1
12:25 1022 30.18 852 25.16 26.4 79.4 34 9.5 49
12:30 1022 30.18 852 25.16 26.4 79.6 34 9.5 49
12:35 1022 30.18 852 25.16 26.6 79.9 32 8.9 48.1
12:40 1022 30.18 852 25.16 26.8 80.3 32 9.2 48.5
12:45 1022 30.18 851 25.13 27.3 81.2 32 9.6 49.2
12:50 1022 30.18 852 25.16 27.5 81.4 31 9.2 48.5
12:55 1022 30.18 851 25.13 26.8 80.3 33 9.5 49.1
13:00 1022 30.18 851 25.13 26.5 79.6 32 8.8 47.8
13:05 1022 30.18 851 25.13 28 82.4 31 9.6 49.2
13:10 1022 30.18 851 25.13 28.3 82.9 29 8.6 47.5
13:15 1022 30.18 851 25.13 28.4 83 30 9.3 48.7
13:20 1022 30.18 851 25.13 26.8 80.2 32 8.7 47.7
13:25 1022 30.18 851 25.13 26.1 78.9 34 9.2 48.6
13:30 1022 30.18 851 25.13 26.1 78.9 34 9.3 48.7
13:35 1022 30.18 851 25.13 25.7 78.2 36 9.7 49.5
13:40 1022 30.18 851 25.13 25.5 77.9 38 10.5 50.9
13:45 1022 30.18 851 25.13 25.3 77.5 38 10 50
13:50 1022 30.18 851 25.13 25.2 77.4 39 10.6 51.1
13:55 1022 30.18 851 25.13 24.9 76.8 41 11 51.8
14:00 1022 30.18 851 25.13 24.7 76.5 42 11.2 52.2
14:05 1022 30.18 851 25.13 24.9 76.8 40 10.5 50.9
14:10 1022 30.18 851 25.13 25.1 77.1 39 10.2 50.4
14:15 1022 30.18 851 25.13 25.8 78.4 37 10.2 50.3
14:20 1022 30.18 851 25.13 26.2 79.2 36 10.3 50.5
14:25 1022 30.18 851 25.13 26.7 80.1 35 10.2 50.3
14:30 1022 30.18 851 25.13 27.5 81.5 31 9.3 48.7
14:35 1022 30.18 851 25.13 28.2 82.8 27 8 46.4
14:40 1022 30.18 851 25.13 28.4 83.1 28 8.2 46.8
14:45 1022 30.18 851 25.13 27 80.5 27 6.8 44.2
14:50 1022 30.18 851 25.13 26.8 80.2 27 6.6 43.9
14:55 1022 30.18 851 25.13 27 80.6 29 7.6 45.7
15:00 1022 30.18 851 25.13 27.4 81.4 28 7.4 45.3
15:05 1022 30.18 851 25.13 27.7 81.9 27 7.2 45
15:10 1022 30.18 851 25.13 27.6 81.6 27 7.4 45.4
15:15 1022 30.18 851 25.13 27.9 82.1 27 7.4 45.3
15:20 1022 30.18 851 25.13 27.3 81.1 28 7.3 45.2
15:25 1022 30.18 851 25.13 26.8 80.2 28 7 44.6
15:30 1022 30.18 851 25.13 26.4 79.4 30 7.5 45.5
15:35 1022 30.18 851 25.13 27 80.5 29 7.6 45.6
15:40 1022 30.18 851 25.13 27.2 81 27 7 44.7
15:45 1022 30.18 851 25.13 28 82.4 27 7.8 46
15:50 1022 30.18 851 25.13 28 82.5 28 8.1 46.6
15:55 1022 30.18 851 25.13 28.2 82.7 26 7.3 45.2
16:00 1022 30.18 851 25.13 27.7 81.9 29 8.1 46.6
16:05 1022 30.18 851 25.13 28.3 82.9 26 7.1 44.7
16:10 1022 30.18 851 25.13 27.8 82.1 27 7.4 45.3
16:15 1022 30.18 851 25.13 28.1 82.5 27 7.8 46
16:20 1022 30.18 851 25.13 27.7 81.9 26 6.7 44.1
16:25 1022 30.18 851 25.13 28.4 83 24 6.4 43.5
16:30 1022 30.18 851 25.13 28.6 83.4 25 7 44.7
16:35 1022 30.18 851 25.13 28.3 82.9 25 6.6 44
16:40 1022 30.18 851 25.13 28.2 82.7 24 6.3 43.3
16:45 1022 30.18 851 25.13 28.9 83.9 24 6.3 43.4
16:50 1022 30.18 851 25.13 29 84.2 23 5.8 42.5
16:55 1022 30.18 851 25.13 28.7 83.7 21 4.5 40.1
17:00 1021 30.15 851 25.13 27.7 81.9 23 4.9 40.8
17:05 1021 30.15 851 25.13 27.8 82 20 3 37.4
17:10 1021 30.15 851 25.13 28.2 82.8 19 2.7 36.8
17:15 1021 30.15 851 25.13 28.4 83.1 19 3.2 37.7
17:20 1021 30.15 851 25.13 28.9 84.1 18 2.9 37.3
17:25 1021 30.15 851 25.13 28.9 83.9 20 4.2 39.5
17:30 1021 30.15 850 25.1 28.5 83.2 20 3.9 39.1
17:35 1021 30.15 850 25.1 28 82.4 20 3.3 37.9
17:40 1021 30.15 850 25.1 28.5 83.4 19 3.2 37.7
17:45 1021 30.15 850 25.1 29.4 84.9 20 4.3 39.7
17:50 1021 30.15 850 25.1 29.5 85 21 5.2 41.4
17:55 1021 30.15 850 25.1 28.5 83.2 24 6 42.8
18:00 1021 30.15 850 25.1 28.3 82.9 24 5.9 42.5
18:05 1021 30.15 850 25.1 28.5 83.3 24 6 42.8
18:10 1021 30.15 850 25.1 28.4 83.1 26 7.4 45.3
18:15 1021 30.15 850 25.1 27.7 81.8 28 7.8 46.1
18:20 1021 30.15 850 25.1 27.4 81.3 29 7.9 46.2
18:25 1021 30.15 850 25.1 27.2 80.9 28 7.5 45.5
18:30 1021 30.15 850 25.1 26.8 80.2 28 6.9 44.5
18:35 1021 30.15 850 25.1 26.7 80 25 5.3 41.6
18:40 1021 30.15 850 25.1 26.7 80.1 26 5.9 42.7
18:45 1021 30.15 850 25.1 26.9 80.4 25 5.4 41.8
18:50 1021 30.15 850 25.1 27.1 80.7 24 5.3 41.6
18:55 1021 30.15 850 25.1 26.9 80.4 27 6.4 43.6
19:00 1021 30.15 850 25.1 27.1 80.8 25 5.9 42.6
19:05 1021 30.15 850 25.1 27.2 80.9 26 6.3 43.4
19:10 1021 30.15 850 25.1 27.2 80.9 26 6.4 43.6
19:15 1021 30.15 850 25.1 26.8 80.2 28 7.3 45.1
19:20 1021 30.15 850 25.1 27.1 80.7 29 7.7 45.9
19:25 1021 30.15 850 25.1 27 80.6 29 7.9 46.2
19:30 1021 30.15 850 25.1 26.5 79.7 30 7.7 45.8
19:35 1021 30.15 850 25.1 25.9 78.7 31 7.6 45.6
19:40 1021 30.15 851 25.13 25.4 77.8 32 7.7 45.9
19:45 1021 30.15 850 25.1 25 77 33 7.7 45.9
19:50 1021 30.15 850 25.1 24.8 76.6 34 8.1 46.6
19:55 1021 30.15 850 25.1 24.4 75.9 35 8 46.4
20:00 1021 30.15 850 25.1 24.4 75.8 33 7.4 45.4
20:05 1021 30.15 850 25.1 24.3 75.7 34 7.5 45.5
20:10 1021 30.15 850 25.1 24.1 75.4 34 7.4 45.3
20:15 1021 30.15 851 25.13 24 75.3 34 7.4 45.3
20:20 1021 30.15 851 25.13 23.8 74.8 37 8.3 46.9
20:25 1022 30.18 851 25.13 23.3 74 39 8.7 47.6
20:30 1022 30.18 851 25.13 23.2 73.7 40 8.9 47.9
20:35 1022 30.18 851 25.13 22.9 73.3 40 8.8 47.9
20:40 1022 30.18 851 25.13 22.7 72.9 41 8.9 48
20:45 1022 30.18 851 25.13 22.6 72.6 41 8.8 47.9
20:50 1022 30.18 851 25.13 22.4 72.3 41 8.9 47.9
20:55 1022 30.18 851 25.13 22.3 72.2 42 8.8 47.9
21:00 1022 30.18 851 25.13 22.3 72.2 42 9 48.1
21:05 1022 30.18 851 25.13 22.2 72 43 9.1 48.5
21:10 1022 30.18 851 25.13 22 71.6 44 9.2 48.5
21:15 1022 30.18 851 25.13 21.8 71.2 44 9.3 48.7
21:20 1022 30.18 851 25.13 21.7 71 45 9.5 49.1
21:25 1022 30.18 851 25.13 21.5 70.7 46 9.5 49.1
21:30 1022 30.18 851 25.13 21.4 70.5 46 9.4 48.9
21:35 1022 30.18 851 25.13 21.4 70.4 46 9.4 48.9
21:40 1022 30.18 851 25.13 21.3 70.3 46 9.4 48.9
21:45 1022 30.18 851 25.13 21.1 70 46 9.2 48.6
21:50 1022 30.18 851 25.13 21.1 70 46 9.1 48.4
21:55 1022 30.18 851 25.13 21 69.9 46 9.1 48.4
22:00 1022 30.18 851 25.13 21 69.8 46 9 48.3
22:05 1022 30.18 851 25.13 21 69.8 47 9.4 48.8
22:10 1022 30.18 851 25.13 20.8 69.4 48 9.4 48.9
22:15 1022 30.18 851 25.13 20.7 69.2 48 9.5 49
22:20 1022 30.18 851 25.13 20.7 69.2 48 9.6 49.2
22:25 1022 30.18 851 25.13 20.6 69 49 9.8 49.6
22:30 1022 30.18 851 25.13 20.5 68.9 50 9.8 49.7
22:35 1022 30.18 851 25.13 20.5 69 50 9.9 49.8
22:40 1022 30.18 851 25.13 20.4 68.8 50 9.9 49.9
22:45 1022 30.18 851 25.13 20.5 68.8 50 10 49.9
22:50 1022 30.18 851 25.13 20.3 68.6 50 9.8 49.6
22:55 1022 30.18 851 25.13 20.3 68.6 50 9.8 49.6
23:00 1022 30.18 851 25.13 20.3 68.6 50 9.6 49.2
23:05 1022 30.18 851 25.13 20.4 68.7 50 9.7 49.5
23:10 1022 30.18 851 25.13 20.4 68.6 50 9.6 49.3
23:15 1022 30.18 852 25.16 20.4 68.7 50 9.7 49.5
23:20 1022 30.18 851 25.13 20.4 68.6 50 9.8 49.6
23:25 1022 30.18 851 25.13 20.3 68.6 50 9.9 49.7
23:30 1022 30.18 851 25.13 20.2 68.3 51 9.8 49.6
23:35 1022 30.18 851 25.13 20.2 68.3 50 9.7 49.5
23:40 1022 30.18 851 25.13 20.2 68.4 50 9.6 49.3
23:45 1022 30.18 851 25.13 20.1 68.2 50 9.5 49.2
23:50 1022 30.18 851 25.13 20.1 68.1 50 9.6 49.2
23:55 1022 30.18 851 25.13 19.9 67.8 51 9.7 49.4
24:00 1022 30.18 851 25.13 19.9 67.7 51 9.7 49.4